createdAt,value
2023-06-30T00:00:36.287Z,145.89
2023-06-30T00:01:36.297Z,149.94
2023-06-30T00:02:36.318Z,154.30
2023-06-30T00:03:36.374Z,160.60
2023-06-30T00:04:36.302Z,166.64
2023-06-30T00:05:36.295Z,168.43
2023-06-30T00:06:36.320Z,166.82
2023-06-30T00:07:36.385Z,175.67
2023-06-30T00:08:36.333Z,173.38
2023-06-30T00:09:36.355Z,170.24
2023-06-30T00:10:36.368Z,169.22
2023-06-30T00:11:36.380Z,170.84
2023-06-30T00:12:36.373Z,170.27
2023-06-30T00:13:36.383Z,170.16
2023-06-30T00:14:36.378Z,170.81
2023-06-30T00:15:36.437Z,174.19
2023-06-30T00:16:36.439Z,172.67
2023-06-30T00:17:36.453Z,175.12
2023-06-30T00:18:36.436Z,172.30
2023-06-30T00:19:36.458Z,179.15
2023-06-30T00:20:36.464Z,178.72
2023-06-30T00:21:36.480Z,174.67
2023-06-30T00:22:36.487Z,178.96
2023-06-30T00:23:36.498Z,178.13
2023-06-30T00:24:36.533Z,183.60
2023-06-30T00:25:36.539Z,182.48
2023-06-30T00:26:36.535Z,187.51
2023-06-30T00:27:36.541Z,183.32
2023-06-30T00:28:36.542Z,186.95
2023-06-30T00:29:36.571Z,186.53
2023-06-30T00:30:36.590Z,188.06
2023-06-30T00:31:36.686Z,191.72
2023-06-30T00:32:36.639Z,195.72
2023-06-30T00:33:36.563Z,192.34
2023-06-30T00:34:36.583Z,200.28
2023-06-30T00:35:36.619Z,201.25
2023-06-30T00:36:36.572Z,213.10
2023-06-30T00:37:36.583Z,216.66
2023-06-30T00:38:36.642Z,212.30
2023-06-30T00:39:36.563Z,223.23
2023-06-30T00:40:36.572Z,222.76
2023-06-30T00:41:36.585Z,221.52
2023-06-30T00:42:36.575Z,233.20
2023-06-30T00:43:36.588Z,236.52
2023-06-30T00:44:36.591Z,238.03
2023-06-30T00:45:36.656Z,250.51
2023-06-30T00:46:36.641Z,248.21
2023-06-30T00:47:36.638Z,259.34
2023-06-30T00:48:36.624Z,261.83
2023-06-30T00:49:36.632Z,268.22
2023-06-30T00:50:36.652Z,269.41
2023-06-30T00:51:36.612Z,291.79
2023-06-30T00:52:36.615Z,290.74
2023-06-30T00:53:36.636Z,288.92
2023-06-30T00:54:36.643Z,303.33
2023-06-30T00:55:36.652Z,308.07
2023-06-30T00:56:36.686Z,318.92
2023-06-30T00:57:36.649Z,312.82
2023-06-30T00:58:36.649Z,326.58
2023-06-30T00:59:36.630Z,324.59
2023-06-30T01:00:36.673Z,333.07
2023-06-30T01:01:36.692Z,338.41
2023-06-30T01:02:36.721Z,339.79
2023-06-30T01:03:36.735Z,331.76
2023-06-30T01:04:36.862Z,341.61
2023-06-30T01:05:36.682Z,342.16
2023-06-30T01:06:36.660Z,352.16
2023-06-30T01:07:36.857Z,347.96
2023-06-30T01:08:36.659Z,340.76
2023-06-30T01:09:36.678Z,341.96
2023-06-30T01:10:36.696Z,355.42
2023-06-30T01:11:36.679Z,365.30
2023-06-30T01:12:36.673Z,361.85
2023-06-30T01:13:36.688Z,363.47
2023-06-30T01:14:36.672Z,373.53
2023-06-30T01:15:36.692Z,373.42
2023-06-30T01:16:36.707Z,381.89
2023-06-30T01:17:36.703Z,383.38
2023-06-30T01:18:36.675Z,373.51
2023-06-30T01:19:36.699Z,384.33
2023-06-30T01:20:36.678Z,378.96
2023-06-30T01:21:36.671Z,390.48
2023-06-30T01:22:36.667Z,388.79
2023-06-30T01:23:36.692Z,390.58
2023-06-30T01:24:36.692Z,392.75
2023-06-30T01:25:36.733Z,393.31
2023-06-30T01:26:36.697Z,392.23
2023-06-30T01:27:36.679Z,394.84
2023-06-30T01:28:36.710Z,393.01
2023-06-30T01:29:36.714Z,400.60
2023-06-30T01:30:36.780Z,403.82
2023-06-30T01:31:36.687Z,399.63
2023-06-30T01:32:36.683Z,407.13
2023-06-30T01:33:36.673Z,413.32
2023-06-30T01:34:36.717Z,413.98
2023-06-30T01:35:37.193Z,414.54
2023-06-30T01:36:36.680Z,408.06
2023-06-30T01:37:36.686Z,422.34
2023-06-30T01:38:36.701Z,431.50
2023-06-30T01:39:36.724Z,429.68
2023-06-30T01:40:36.762Z,433.80
2023-06-30T01:41:36.760Z,438.23
2023-06-30T01:42:36.782Z,431.65
2023-06-30T01:43:36.805Z,446.82
2023-06-30T01:44:36.832Z,448.62
2023-06-30T01:45:36.881Z,449.56
2023-06-30T01:46:36.933Z,456.92
2023-06-30T01:47:36.943Z,453.66
2023-06-30T01:48:36.900Z,452.59
2023-06-30T01:49:36.912Z,446.12
2023-06-30T01:50:36.952Z,463.78
2023-06-30T01:51:36.915Z,470.47
2023-06-30T01:52:36.922Z,467.05
2023-06-30T01:53:36.939Z,472.74
2023-06-30T01:54:36.920Z,477.24
2023-06-30T01:55:36.976Z,471.53
2023-06-30T01:56:36.959Z,477.80
2023-06-30T01:57:36.949Z,478.29
2023-06-30T01:58:36.957Z,484.30
2023-06-30T01:59:36.976Z,472.85
2023-06-30T02:00:36.974Z,480.74
2023-06-30T02:01:37.012Z,476.55
2023-06-30T02:02:37.004Z,476.75
2023-06-30T02:03:37.029Z,467.49
2023-06-30T02:04:36.991Z,472.46
2023-06-30T02:05:36.986Z,473.08
2023-06-30T02:06:36.972Z,472.94
2023-06-30T02:07:37.183Z,475.30
2023-06-30T02:08:36.999Z,487.63
2023-06-30T02:09:47.254Z,478.44
2023-06-30T02:10:37.985Z,479.16
2023-06-30T02:11:36.967Z,479.99
2023-06-30T02:12:36.973Z,482.08
2023-06-30T02:13:36.942Z,492.04
2023-06-30T02:14:36.957Z,508.76
2023-06-30T02:15:36.940Z,507.81
2023-06-30T02:16:37.013Z,492.55
2023-06-30T02:17:37.002Z,511.34
2023-06-30T02:18:36.919Z,504.44
2023-06-30T02:19:36.908Z,486.09
2023-06-30T02:20:36.907Z,495.04
2023-06-30T02:21:36.897Z,493.01
2023-06-30T02:22:36.899Z,498.77
2023-06-30T02:23:36.890Z,496.25
2023-06-30T02:24:36.880Z,500.66
2023-06-30T02:25:36.877Z,501.04
2023-06-30T02:26:36.867Z,495.90
2023-06-30T02:27:36.872Z,492.82
2023-06-30T02:28:36.856Z,495.78
2023-06-30T02:29:36.842Z,498.25
2023-06-30T02:30:36.849Z,494.17
2023-06-30T02:31:36.882Z,490.99
2023-06-30T02:32:36.835Z,491.23
2023-06-30T02:33:36.825Z,487.85
2023-06-30T02:34:36.817Z,483.98
2023-06-30T02:35:36.838Z,472.90
2023-06-30T02:36:36.801Z,483.52
2023-06-30T02:37:36.785Z,464.99
2023-06-30T02:38:36.823Z,472.75
2023-06-30T02:39:36.774Z,462.65
2023-06-30T02:40:36.770Z,463.52
2023-06-30T02:41:36.773Z,461.20
2023-06-30T02:42:36.771Z,454.99
2023-06-30T02:43:36.762Z,454.50
2023-06-30T02:44:36.736Z,439.78
2023-06-30T02:45:36.761Z,465.52
2023-06-30T02:46:36.733Z,472.59
2023-06-30T02:47:36.724Z,447.03
2023-06-30T02:48:36.720Z,450.00
2023-06-30T02:49:36.727Z,449.59
2023-06-30T02:50:36.723Z,453.58
2023-06-30T02:51:36.714Z,452.65
2023-06-30T02:52:36.744Z,449.04
2023-06-30T02:53:36.711Z,452.29
2023-06-30T02:54:36.735Z,439.37
2023-06-30T02:55:38.888Z,454.60
2023-06-30T02:56:36.874Z,455.12
2023-06-30T02:57:36.885Z,444.83
2023-06-30T02:58:36.915Z,440.22
2023-06-30T02:59:36.870Z,434.71
2023-06-30T03:00:36.890Z,432.99
2023-06-30T03:01:37.018Z,442.98
2023-06-30T03:02:37.059Z,441.04
2023-06-30T03:03:37.114Z,435.03
2023-06-30T03:04:36.897Z,429.72
2023-06-30T03:05:36.928Z,429.55
2023-06-30T03:06:36.904Z,434.74
2023-06-30T03:07:37.001Z,415.83
2023-06-30T03:08:36.938Z,426.37
2023-06-30T03:09:36.947Z,427.35
2023-06-30T03:10:37.209Z,410.63
2023-06-30T03:11:36.962Z,413.44
2023-06-30T03:12:36.945Z,411.06
2023-06-30T03:13:36.948Z,411.37
2023-06-30T03:14:36.958Z,418.95
2023-06-30T03:15:36.970Z,414.64
2023-06-30T03:16:37.005Z,413.14
2023-06-30T03:17:37.006Z,405.91
2023-06-30T03:18:36.997Z,421.73
2023-06-30T03:19:37.008Z,410.32
2023-06-30T03:20:37.011Z,410.33
2023-06-30T03:21:37.006Z,417.08
2023-06-30T03:22:37.025Z,405.28
2023-06-30T03:23:37.041Z,412.21
2023-06-30T03:24:37.027Z,406.95
2023-06-30T03:25:37.039Z,398.64
2023-06-30T03:26:37.073Z,393.65
2023-06-30T03:27:37.073Z,399.49
2023-06-30T03:28:37.079Z,400.25
2023-06-30T03:29:37.088Z,387.62
2023-06-30T03:30:37.127Z,387.96
2023-06-30T03:31:37.159Z,392.86
2023-06-30T03:32:37.155Z,394.48
2023-06-30T03:33:37.129Z,386.74
2023-06-30T03:34:37.162Z,380.00
2023-06-30T03:35:37.170Z,392.86
2023-06-30T03:36:37.197Z,377.26
2023-06-30T03:37:37.203Z,378.23
2023-06-30T03:38:37.229Z,373.71
2023-06-30T03:39:37.230Z,373.82
2023-06-30T03:40:37.321Z,367.35
2023-06-30T03:41:37.274Z,376.38
2023-06-30T03:42:37.288Z,372.07
2023-06-30T03:43:37.269Z,367.51
2023-06-30T03:44:37.304Z,367.47
2023-06-30T03:45:37.332Z,370.14
2023-06-30T03:46:37.422Z,361.09
2023-06-30T03:47:37.323Z,363.34
2023-06-30T03:48:37.398Z,367.03
2023-06-30T03:49:37.348Z,361.04
2023-06-30T03:50:37.368Z,367.80
2023-06-30T03:51:37.392Z,360.16
2023-06-30T03:52:37.395Z,356.68
2023-06-30T03:53:37.361Z,356.82
2023-06-30T03:54:37.400Z,352.01
2023-06-30T03:55:37.733Z,351.66
2023-06-30T03:56:37.373Z,350.89
2023-06-30T03:57:37.414Z,345.07
2023-06-30T03:58:37.400Z,349.10
2023-06-30T03:59:37.407Z,348.44
2023-06-30T04:00:37.385Z,341.76
2023-06-30T04:01:37.399Z,342.19
2023-06-30T04:02:37.457Z,343.45
2023-06-30T04:03:37.584Z,338.70
2023-06-30T04:04:37.478Z,332.81
2023-06-30T04:05:37.357Z,329.78
2023-06-30T04:06:37.366Z,324.73
2023-06-30T04:07:37.382Z,329.95
2023-06-30T04:08:37.363Z,327.19
2023-06-30T04:09:37.371Z,323.32
2023-06-30T04:10:37.394Z,334.95
2023-06-30T04:11:37.370Z,324.75
2023-06-30T04:12:37.369Z,325.70
2023-06-30T04:13:37.418Z,325.56
2023-06-30T04:14:37.403Z,322.55
2023-06-30T04:15:37.378Z,321.69
2023-06-30T04:16:37.422Z,316.12
2023-06-30T04:17:37.443Z,320.13
2023-06-30T04:18:37.418Z,318.40
2023-06-30T04:19:37.405Z,311.53
2023-06-30T04:20:37.397Z,314.49
2023-06-30T04:21:37.430Z,313.47
2023-06-30T04:22:37.422Z,311.42
2023-06-30T04:23:37.513Z,315.85
2023-06-30T04:24:37.420Z,305.56
2023-06-30T04:25:37.441Z,305.78
2023-06-30T04:26:37.449Z,306.30
2023-06-30T04:27:37.498Z,305.38
2023-06-30T04:28:37.485Z,306.08
2023-06-30T04:29:37.531Z,295.62
2023-06-30T04:30:37.754Z,303.50
2023-06-30T04:31:37.657Z,303.26
2023-06-30T04:32:37.659Z,299.28
2023-06-30T04:33:37.605Z,306.88
2023-06-30T04:34:37.622Z,308.06
2023-06-30T04:35:37.801Z,297.97
2023-06-30T04:36:37.650Z,301.58
2023-06-30T04:37:37.671Z,293.75
2023-06-30T04:38:37.727Z,296.76
2023-06-30T04:39:37.706Z,285.94
2023-06-30T04:40:37.737Z,276.55
2023-06-30T04:41:37.742Z,278.29
2023-06-30T04:42:37.786Z,278.31
2023-06-30T04:43:37.783Z,273.99
2023-06-30T04:44:37.793Z,268.58
2023-06-30T04:45:37.831Z,268.54
2023-06-30T04:46:37.947Z,267.67
2023-06-30T04:47:37.908Z,264.12
2023-06-30T04:48:37.885Z,261.30
2023-06-30T04:49:37.917Z,259.84
2023-06-30T04:50:37.939Z,267.73
2023-06-30T04:51:37.951Z,264.34
2023-06-30T04:52:37.978Z,261.62
2023-06-30T04:53:38.010Z,262.96
2023-06-30T04:54:38.017Z,259.74
2023-06-30T04:55:38.095Z,264.52
2023-06-30T04:56:38.085Z,261.91
2023-06-30T04:57:38.091Z,260.99
2023-06-30T04:58:38.118Z,257.48
2023-06-30T04:59:38.138Z,258.49
2023-06-30T05:00:38.150Z,259.99
2023-06-30T05:01:38.244Z,264.64
2023-06-30T05:02:38.267Z,266.02
2023-06-30T05:03:38.241Z,264.05
2023-06-30T05:04:38.252Z,262.95
2023-06-30T05:05:38.276Z,261.70
2023-06-30T05:06:38.296Z,266.76
2023-06-30T05:07:38.372Z,264.58
2023-06-30T05:08:38.316Z,260.83
2023-06-30T05:09:38.314Z,259.91
2023-06-30T05:10:38.366Z,259.62
2023-06-30T05:11:38.378Z,256.86
2023-06-30T05:12:38.389Z,256.21
2023-06-30T05:13:38.395Z,254.10
2023-06-30T05:14:38.417Z,255.48
2023-06-30T05:15:38.578Z,248.02
2023-06-30T05:16:38.591Z,244.52
2023-06-30T05:17:38.562Z,242.87
2023-06-30T05:18:38.484Z,240.49
2023-06-30T05:19:38.505Z,234.86
2023-06-30T05:20:38.541Z,233.95
2023-06-30T05:21:38.572Z,232.27
2023-06-30T05:22:38.584Z,232.93
2023-06-30T05:23:38.701Z,226.21
2023-06-30T05:24:38.637Z,228.53
2023-06-30T05:25:38.708Z,231.81
2023-06-30T05:26:38.719Z,232.22
2023-06-30T05:27:38.735Z,228.07
2023-06-30T05:28:38.861Z,221.69
2023-06-30T05:29:38.781Z,222.83
2023-06-30T05:30:38.830Z,220.42
2023-06-30T05:31:38.855Z,216.63
2023-06-30T05:32:38.948Z,221.90
2023-06-30T05:33:38.887Z,249.85
2023-06-30T05:34:38.897Z,283.54
2023-06-30T05:35:38.906Z,304.25
2023-06-30T05:36:38.918Z,284.91
2023-06-30T05:37:38.978Z,266.55
2023-06-30T05:38:38.981Z,259.87
2023-06-30T05:39:39.024Z,238.43
2023-06-30T05:40:39.069Z,236.96
2023-06-30T05:41:39.133Z,238.27
2023-06-30T05:42:39.156Z,237.89
2023-06-30T05:43:39.205Z,232.26
2023-06-30T05:44:39.301Z,232.89
2023-06-30T05:45:39.310Z,226.09
2023-06-30T05:46:39.434Z,217.20
2023-06-30T05:47:39.448Z,219.79
2023-06-30T05:48:39.485Z,212.02
2023-06-30T05:49:39.554Z,209.48
2023-06-30T05:50:40.931Z,213.21
2023-06-30T05:51:39.589Z,217.61
2023-06-30T05:52:39.629Z,219.69
2023-06-30T05:53:39.570Z,223.87
2023-06-30T05:54:39.570Z,222.42
2023-06-30T05:55:39.597Z,213.11
2023-06-30T05:56:39.564Z,199.58
2023-06-30T05:57:39.547Z,191.75
2023-06-30T05:58:39.550Z,183.72
2023-06-30T05:59:39.534Z,185.78
2023-06-30T06:00:39.541Z,179.31
2023-06-30T06:01:39.594Z,170.42
2023-06-30T06:02:39.630Z,162.27
2023-06-30T06:03:39.653Z,144.95
2023-06-30T06:04:39.742Z,130.75
2023-06-30T06:05:39.935Z,123.70
2023-06-30T06:06:39.504Z,128.18
2023-06-30T06:07:39.569Z,134.68
2023-06-30T06:08:39.495Z,138.68
2023-06-30T06:09:39.492Z,138.99
2023-06-30T06:10:39.799Z,139.09
2023-06-30T06:11:39.465Z,137.84
2023-06-30T06:12:39.492Z,126.42
2023-06-30T06:13:39.455Z,115.46
2023-06-30T06:14:39.445Z,108.52
2023-06-30T06:15:39.433Z,104.08
2023-06-30T06:16:39.451Z,98.47
2023-06-30T06:17:39.572Z,95.74
2023-06-30T06:18:39.438Z,91.92
2023-06-30T06:19:39.404Z,93.32
2023-06-30T06:20:39.420Z,96.05
2023-06-30T06:21:39.396Z,97.58
2023-06-30T06:22:39.381Z,97.52
2023-06-30T06:23:39.386Z,94.90
2023-06-30T06:24:39.384Z,95.58
2023-06-30T06:25:39.380Z,91.88
2023-06-30T06:26:39.348Z,94.83
2023-06-30T06:27:39.366Z,96.37
2023-06-30T06:28:39.360Z,96.70
2023-06-30T06:29:39.345Z,104.30
2023-06-30T06:30:39.344Z,103.47
2023-06-30T06:31:39.314Z,100.02
2023-06-30T06:32:39.410Z,107.30
2023-06-30T06:33:39.401Z,103.28
2023-06-30T06:34:39.467Z,103.33
2023-06-30T06:35:39.554Z,102.37
2023-06-30T06:36:39.564Z,96.40
2023-06-30T06:37:39.606Z,97.08
2023-06-30T06:38:39.666Z,96.55
2023-06-30T06:39:39.695Z,103.10
2023-06-30T06:40:39.744Z,103.59
2023-06-30T06:41:39.781Z,105.96
2023-06-30T06:42:39.831Z,107.07
2023-06-30T06:43:39.896Z,103.74
2023-06-30T06:44:40.665Z,103.52
2023-06-30T06:45:40.040Z,103.29
2023-06-30T06:46:40.178Z,102.03
2023-06-30T06:47:40.167Z,93.21
2023-06-30T06:48:40.149Z,80.64
2023-06-30T06:49:40.115Z,78.31
2023-06-30T06:50:40.127Z,76.50
2023-06-30T06:51:40.147Z,77.52
2023-06-30T06:52:40.153Z,76.25
2023-06-30T06:53:40.165Z,76.41
2023-06-30T06:54:40.177Z,78.27
2023-06-30T06:55:40.194Z,76.98
2023-06-30T06:56:40.207Z,80.50
2023-06-30T06:57:40.258Z,82.89
2023-06-30T06:58:40.216Z,82.49
2023-06-30T06:59:40.240Z,83.64
2023-06-30T07:00:40.266Z,81.45
2023-06-30T07:01:40.292Z,75.45
2023-06-30T07:02:40.330Z,72.37
2023-06-30T07:03:40.330Z,66.79
2023-06-30T07:04:40.313Z,64.01
2023-06-30T07:05:40.341Z,61.63
2023-06-30T07:06:40.380Z,58.69
2023-06-30T07:07:40.444Z,57.34
2023-06-30T07:08:40.487Z,52.81
2023-06-30T07:09:40.441Z,51.63
2023-06-30T07:10:40.520Z,51.98
2023-06-30T07:11:40.515Z,52.18
2023-06-30T07:12:40.550Z,51.85
2023-06-30T07:13:40.573Z,51.78
2023-06-30T07:14:41.604Z,51.39
2023-06-30T07:15:40.637Z,51.22
2023-06-30T07:16:40.688Z,54.25
2023-06-30T07:17:40.778Z,54.69
2023-06-30T07:18:40.759Z,56.35
2023-06-30T07:19:40.733Z,55.25
2023-06-30T07:20:40.766Z,55.67
2023-06-30T07:21:40.931Z,54.86
2023-06-30T07:22:40.805Z,52.62
2023-06-30T07:23:40.835Z,48.48
2023-06-30T07:24:43.765Z,47.64
2023-06-30T07:25:40.887Z,46.59
2023-06-30T07:26:40.870Z,58.67
2023-06-30T07:27:40.861Z,63.41
2023-06-30T07:28:40.833Z,61.78
2023-06-30T07:29:40.891Z,58.20
2023-06-30T07:30:40.827Z,59.21
2023-06-30T07:31:40.856Z,59.31
2023-06-30T07:32:40.858Z,58.61
2023-06-30T07:33:40.802Z,58.99
2023-06-30T07:34:40.811Z,58.90
2023-06-30T07:35:40.835Z,58.67
2023-06-30T07:36:40.810Z,55.32
2023-06-30T07:37:40.773Z,55.14
2023-06-30T07:38:40.768Z,55.10
2023-06-30T07:39:40.756Z,55.22
2023-06-30T07:40:54.965Z,55.56
2023-06-30T07:41:41.762Z,55.60
2023-06-30T07:42:40.744Z,55.35
2023-06-30T07:43:40.731Z,53.35
2023-06-30T07:44:40.744Z,52.54
2023-06-30T07:45:40.777Z,61.13
2023-06-30T07:46:40.803Z,69.62
2023-06-30T07:47:40.850Z,77.95
2023-06-30T07:48:40.760Z,74.77
2023-06-30T07:49:40.703Z,70.35
2023-06-30T07:50:44.962Z,70.31
2023-06-30T07:51:41.689Z,70.46
2023-06-30T07:52:42.164Z,71.36
2023-06-30T07:53:40.927Z,72.99
2023-06-30T07:54:40.971Z,72.99
2023-06-30T07:55:40.972Z,76.85
2023-06-30T07:56:40.997Z,81.38
2023-06-30T07:57:41.071Z,81.02
2023-06-30T07:58:41.055Z,81.69
2023-06-30T07:59:41.062Z,82.24
2023-06-30T08:00:41.105Z,83.82
2023-06-30T08:01:41.130Z,88.76
2023-06-30T08:02:41.221Z,88.04
2023-06-30T08:03:41.497Z,88.99
2023-06-30T08:04:41.462Z,94.10
2023-06-30T08:05:41.503Z,95.52
2023-06-30T08:06:41.282Z,92.07
2023-06-30T08:07:48.541Z,93.37
2023-06-30T08:08:42.293Z,93.56
2023-06-30T08:09:41.282Z,94.69
2023-06-30T08:10:42.233Z,97.08
2023-06-30T08:11:41.263Z,100.15
2023-06-30T08:12:41.254Z,103.47
2023-06-30T08:13:41.254Z,101.41
2023-06-30T08:14:41.266Z,93.24
2023-06-30T08:15:41.373Z,89.49
2023-06-30T08:16:41.285Z,87.06
2023-06-30T08:17:51.852Z,78.92
2023-06-30T08:18:51.296Z,73.69
2023-06-30T08:19:48.597Z,66.60
2023-06-30T08:20:42.215Z,61.62
2023-06-30T08:21:41.251Z,54.03
2023-06-30T08:22:41.213Z,51.58
2023-06-30T08:23:41.208Z,47.05
2023-06-30T08:24:41.210Z,49.91
2023-06-30T08:25:41.205Z,62.78
2023-06-30T08:26:41.179Z,78.78
2023-06-30T08:27:41.169Z,77.60
2023-06-30T08:28:41.155Z,69.41
2023-06-30T08:29:41.141Z,61.47
2023-06-30T08:30:41.155Z,61.82
2023-06-30T08:31:41.133Z,62.26
2023-06-30T08:32:41.170Z,57.77
2023-06-30T08:33:41.448Z,51.07
2023-06-30T08:34:41.114Z,49.44
2023-06-30T08:35:41.128Z,50.53
2023-06-30T08:36:42.356Z,50.23
2023-06-30T08:37:41.127Z,50.17
2023-06-30T08:38:41.100Z,49.01
2023-06-30T08:39:41.076Z,46.57
2023-06-30T08:40:41.092Z,48.96
2023-06-30T08:41:41.376Z,62.79
2023-06-30T08:42:41.082Z,93.90
2023-06-30T08:43:41.052Z,92.63
2023-06-30T08:44:41.055Z,84.47
2023-06-30T08:45:41.038Z,80.52
2023-06-30T08:46:41.426Z,80.93
2023-06-30T08:47:42.931Z,73.31
2023-06-30T08:48:41.009Z,68.12
2023-06-30T08:49:41.006Z,66.73
2023-06-30T08:50:41.034Z,68.58
2023-06-30T08:51:40.996Z,69.93
2023-06-30T08:52:40.995Z,72.01
2023-06-30T08:53:41.013Z,69.03
2023-06-30T08:54:41.867Z,68.86
2023-06-30T08:55:40.978Z,64.39
2023-06-30T08:56:40.988Z,57.17
2023-06-30T08:57:40.970Z,53.88
2023-06-30T08:58:40.944Z,54.53
2023-06-30T08:59:40.942Z,51.66
2023-06-30T09:00:41.011Z,53.96
2023-06-30T09:01:41.046Z,55.54
2023-06-30T09:02:41.218Z,55.14
2023-06-30T09:03:41.141Z,52.59
2023-06-30T09:04:41.109Z,54.56
2023-06-30T09:05:41.140Z,54.59
2023-06-30T09:06:41.164Z,55.83
2023-06-30T09:07:41.439Z,55.56
2023-06-30T09:08:41.249Z,54.01
2023-06-30T09:09:41.317Z,56.52
2023-06-30T09:10:41.307Z,53.69
2023-06-30T09:11:41.337Z,54.63
2023-06-30T09:12:41.378Z,58.68
2023-06-30T09:13:41.376Z,60.09
2023-06-30T09:14:41.417Z,62.08
2023-06-30T09:15:41.446Z,58.90
2023-06-30T09:16:41.516Z,58.40
2023-06-30T09:17:41.567Z,59.77
2023-06-30T09:18:41.519Z,61.55
2023-06-30T09:19:41.554Z,60.26
2023-06-30T09:20:41.608Z,57.72
2023-06-30T09:21:41.614Z,53.10
2023-06-30T09:22:51.548Z,51.46
2023-06-30T09:23:42.662Z,51.57
2023-06-30T09:24:41.622Z,52.64
2023-06-30T09:25:41.663Z,55.14
2023-06-30T09:26:41.605Z,59.00
2023-06-30T09:27:41.589Z,62.46
2023-06-30T09:28:41.589Z,63.85
2023-06-30T09:29:41.589Z,69.75
2023-06-30T09:30:41.570Z,75.55
2023-06-30T09:31:41.600Z,77.18
2023-06-30T09:32:41.590Z,83.98
2023-06-30T09:33:41.556Z,93.62
2023-06-30T09:34:41.553Z,101.15
2023-06-30T09:35:41.582Z,111.18
2023-06-30T09:36:41.601Z,111.76
2023-06-30T09:37:41.701Z,106.31
2023-06-30T09:38:41.733Z,103.69
2023-06-30T09:39:41.740Z,98.97
2023-06-30T09:40:41.889Z,98.53
2023-06-30T09:41:41.831Z,97.59
2023-06-30T09:42:41.912Z,98.12
2023-06-30T09:43:41.904Z,95.32
2023-06-30T09:44:41.956Z,89.65
2023-06-30T09:45:42.421Z,84.93
2023-06-30T09:46:42.129Z,85.94
2023-06-30T09:47:42.146Z,82.84
2023-06-30T09:48:42.122Z,81.00
2023-06-30T09:49:42.218Z,78.71
2023-06-30T09:50:42.250Z,78.60
2023-06-30T09:51:42.279Z,77.98
2023-06-30T09:52:42.336Z,78.03
2023-06-30T09:53:42.444Z,76.50
2023-06-30T09:54:44.934Z,74.05
2023-06-30T09:55:42.657Z,72.20
2023-06-30T09:56:42.405Z,71.02
2023-06-30T09:57:42.449Z,71.24
2023-06-30T09:58:42.409Z,69.54
2023-06-30T09:59:42.389Z,69.61
2023-06-30T10:00:42.400Z,67.03
2023-06-30T10:01:42.441Z,66.75
2023-06-30T10:02:42.445Z,65.87
2023-06-30T10:03:42.424Z,65.50
2023-06-30T10:04:42.391Z,67.05
2023-06-30T10:05:42.384Z,67.89
2023-06-30T10:06:42.397Z,68.59
2023-06-30T10:07:42.343Z,66.64
2023-06-30T10:08:42.318Z,65.05
2023-06-30T10:09:42.316Z,65.31
2023-06-30T10:10:42.350Z,64.04
2023-06-30T10:11:42.306Z,62.70
2023-06-30T10:12:44.247Z,60.42
2023-06-30T10:13:42.279Z,56.20
2023-06-30T10:14:42.305Z,54.96
2023-06-30T10:15:42.431Z,52.11
2023-06-30T10:16:42.263Z,50.24
2023-06-30T10:17:42.419Z,50.08
2023-06-30T10:18:42.294Z,46.63
2023-06-30T10:19:42.232Z,45.65
2023-06-30T10:20:47.935Z,45.47
2023-06-30T10:21:43.227Z,45.54
2023-06-30T10:22:42.218Z,45.83
2023-06-30T10:23:42.203Z,46.21
2023-06-30T10:24:42.200Z,47.29
2023-06-30T10:25:42.196Z,65.72
2023-06-30T10:26:42.250Z,78.53
2023-06-30T10:27:42.224Z,90.16
2023-06-30T10:28:42.189Z,91.31
2023-06-30T10:29:42.168Z,92.56
2023-06-30T10:30:42.174Z,85.42
2023-06-30T10:31:42.169Z,79.35
2023-06-30T10:32:42.217Z,80.44
2023-06-30T10:33:42.184Z,80.63
2023-06-30T10:34:42.156Z,70.84
2023-06-30T10:35:42.149Z,63.43
2023-06-30T10:36:42.127Z,60.45
2023-06-30T10:37:42.132Z,58.54
2023-06-30T10:38:42.116Z,57.44
2023-06-30T10:39:42.117Z,55.61
2023-06-30T10:40:42.110Z,53.56
2023-06-30T10:41:42.092Z,53.69
2023-06-30T10:42:42.129Z,57.89
2023-06-30T10:43:42.090Z,54.77
2023-06-30T10:44:42.101Z,54.83
2023-06-30T10:45:42.150Z,56.01
2023-06-30T10:46:42.144Z,57.17
2023-06-30T10:47:42.097Z,58.67
2023-06-30T10:48:42.085Z,58.00
2023-06-30T10:49:42.078Z,61.07
2023-06-30T10:50:42.113Z,60.48
2023-06-30T10:51:42.089Z,61.97
2023-06-30T10:52:42.116Z,63.52
2023-06-30T10:53:42.111Z,60.61
2023-06-30T10:54:42.159Z,59.22
2023-06-30T10:55:42.143Z,58.87
2023-06-30T10:56:42.137Z,57.88
2023-06-30T10:57:42.158Z,61.25
2023-06-30T10:58:42.181Z,60.28
2023-06-30T10:59:42.159Z,55.53
2023-06-30T11:00:42.162Z,53.75
2023-06-30T11:01:42.158Z,55.55
2023-06-30T11:02:42.333Z,54.30
2023-06-30T11:03:42.315Z,54.34
2023-06-30T11:04:42.228Z,52.37
2023-06-30T11:05:42.202Z,50.92
2023-06-30T11:06:42.148Z,47.41
2023-06-30T11:07:42.220Z,45.58
2023-06-30T11:08:42.179Z,45.49
2023-06-30T11:09:42.167Z,45.43
2023-06-30T11:10:42.190Z,47.93
2023-06-30T11:11:42.170Z,48.22
2023-06-30T11:12:42.177Z,48.98
2023-06-30T11:13:42.168Z,49.82
2023-06-30T11:14:42.178Z,49.93
2023-06-30T11:15:42.212Z,51.72
2023-06-30T11:16:42.207Z,61.18
2023-06-30T11:17:42.256Z,87.28
2023-06-30T11:18:42.371Z,141.77
2023-06-30T11:19:42.275Z,209.53
2023-06-30T11:20:42.288Z,234.50
2023-06-30T11:21:42.335Z,272.38
2023-06-30T11:22:42.393Z,246.53
2023-06-30T11:23:42.473Z,201.86
2023-06-30T11:24:42.485Z,176.33
2023-06-30T11:25:42.549Z,157.60
2023-06-30T11:26:42.600Z,129.67
2023-06-30T11:27:42.649Z,106.73
2023-06-30T11:28:42.709Z,74.21
2023-06-30T11:29:42.788Z,59.08
2023-06-30T11:30:42.864Z,46.02
2023-06-30T11:31:42.940Z,34.45
2023-06-30T11:32:42.945Z,27.70
2023-06-30T11:33:42.952Z,26.19
2023-06-30T11:34:43.021Z,24.98
2023-06-30T11:35:43.070Z,23.56
2023-06-30T11:36:43.437Z,22.03
2023-06-30T11:37:43.191Z,20.02
2023-06-30T11:38:43.249Z,17.84
2023-06-30T11:39:43.271Z,17.54
2023-06-30T11:40:43.321Z,16.20
2023-06-30T11:41:43.342Z,14.84
2023-06-30T11:42:43.349Z,12.75
2023-06-30T11:43:43.347Z,12.11
2023-06-30T11:44:43.362Z,11.42
2023-06-30T11:45:43.640Z,11.21
2023-06-30T11:46:43.404Z,11.41
2023-06-30T11:47:43.402Z,11.42
2023-06-30T11:48:43.405Z,10.85
2023-06-30T11:49:43.368Z,10.78
2023-06-30T11:50:43.534Z,11.29
2023-06-30T11:51:43.370Z,10.98
2023-06-30T11:52:43.360Z,11.01
2023-06-30T11:53:43.374Z,10.25
2023-06-30T11:54:43.406Z,9.99
2023-06-30T11:55:43.598Z,9.59
2023-06-30T11:56:43.426Z,8.83
2023-06-30T11:57:43.423Z,8.56
2023-06-30T11:58:43.445Z,7.79
2023-06-30T11:59:43.462Z,7.48
2023-06-30T12:00:43.789Z,7.42
2023-06-30T12:01:43.492Z,8.08
2023-06-30T12:02:43.601Z,8.29
2023-06-30T12:03:43.680Z,7.27
2023-06-30T12:04:43.680Z,6.57
2023-06-30T12:05:44.026Z,6.10
2023-06-30T12:06:43.763Z,5.54
2023-06-30T12:07:43.801Z,5.58
2023-06-30T12:08:43.861Z,4.99
2023-06-30T12:09:43.931Z,5.01
2023-06-30T12:10:44.378Z,5.31
2023-06-30T12:11:44.039Z,6.32
2023-06-30T12:12:44.103Z,9.17
2023-06-30T12:13:44.158Z,14.08
2023-06-30T12:14:44.233Z,17.64
2023-06-30T12:15:44.539Z,17.80
2023-06-30T12:16:44.407Z,16.67
2023-06-30T12:17:44.487Z,13.78
2023-06-30T12:18:44.394Z,12.70
2023-06-30T12:19:44.442Z,13.31
2023-06-30T12:20:44.514Z,15.47
2023-06-30T12:21:44.552Z,14.84
2023-06-30T12:22:44.582Z,13.96
2023-06-30T12:23:44.700Z,15.67
2023-06-30T12:24:44.684Z,18.73
2023-06-30T12:25:44.875Z,20.34
2023-06-30T12:26:44.793Z,21.45
2023-06-30T12:27:44.867Z,22.99
2023-06-30T12:28:44.888Z,25.03
2023-06-30T12:29:44.918Z,23.37
2023-06-30T12:30:45.125Z,25.67
2023-06-30T12:31:45.049Z,26.06
2023-06-30T12:32:45.106Z,27.97
2023-06-30T12:33:45.126Z,31.16
2023-06-30T12:34:45.196Z,32.81
2023-06-30T12:35:45.423Z,34.83
2023-06-30T12:36:45.280Z,37.64
2023-06-30T12:37:45.350Z,36.99
2023-06-30T12:38:45.378Z,37.36
2023-06-30T12:39:45.492Z,35.56
2023-06-30T12:40:45.739Z,33.50